createdAt,value
2018-09-17T00:01:41.967Z,101682.11
2018-09-17T00:06:45.210Z,101672.09
2018-09-17T00:11:48.381Z,101660.55
2018-09-17T00:16:51.609Z,101664.60
2018-09-17T00:21:54.880Z,101672.20
2018-09-17T00:26:58.116Z,101674.41
2018-09-17T00:32:01.396Z,101672.03
2018-09-17T00:37:04.703Z,101667.52
2018-09-17T00:42:08.104Z,101670.97
2018-09-17T00:47:11.610Z,101669.04
2018-09-17T00:52:14.944Z,101663.96
2018-09-17T00:57:18.206Z,101674.74
2018-09-17T01:02:21.453Z,101664.59
2018-09-17T01:07:24.758Z,101666.95
2018-09-17T01:12:28.124Z,101661.57
2018-09-17T01:17:31.381Z,101662.95
2018-09-17T01:22:34.662Z,101658.01
2018-09-17T01:27:37.986Z,101646.93
2018-09-17T01:32:41.287Z,101657.69
2018-09-17T01:37:44.465Z,101652.55
2018-09-17T01:42:47.761Z,101660.15
2018-09-17T01:47:50.990Z,101659.95
2018-09-17T01:52:54.313Z,101661.89
2018-09-17T01:57:57.575Z,101668.30
2018-09-17T02:03:00.934Z,101659.70
2018-09-17T02:08:05.419Z,101661.31
2018-09-17T02:13:08.802Z,101664.08
2018-09-17T02:18:12.108Z,101657.41
2018-09-17T02:23:15.380Z,101674.50
2018-09-17T02:28:18.654Z,101672.55
2018-09-17T02:33:21.900Z,101666.66
2018-09-17T02:38:25.201Z,101677.45
2018-09-17T02:43:28.902Z,101677.13
2018-09-17T02:48:32.452Z,101679.71
2018-09-17T02:53:35.894Z,101678.30
2018-09-17T02:58:39.041Z,101656.05
2018-09-17T03:03:42.357Z,101654.25
2018-09-17T03:08:45.881Z,101660.09
2018-09-17T03:13:49.305Z,101660.00
2018-09-17T03:18:53.104Z,101650.31
2018-09-17T03:23:56.480Z,101652.50
2018-09-17T03:28:59.882Z,101661.34
2018-09-17T03:34:03.124Z,101672.23
2018-09-17T03:39:06.898Z,101671.16
2018-09-17T03:44:10.128Z,101671.17
2018-09-17T03:49:13.427Z,101667.66
2018-09-17T03:54:16.669Z,101661.26
2018-09-17T03:59:19.883Z,101670.91
2018-09-17T04:04:23.501Z,101667.65
2018-09-17T04:09:26.750Z,101671.64
2018-09-17T04:14:30.147Z,101663.80
2018-09-17T04:19:33.385Z,101663.44
2018-09-17T04:24:36.795Z,101679.14
2018-09-17T04:29:40.041Z,101677.81
2018-09-17T04:34:43.390Z,101675.17
2018-09-17T04:39:46.629Z,101673.24
2018-09-17T04:44:49.869Z,101681.22
2018-09-17T04:49:53.482Z,101671.04
2018-09-17T04:54:57.020Z,101654.13
2018-09-17T05:00:01.397Z,101662.70
2018-09-17T05:05:05.332Z,101667.87
2018-09-17T05:10:09.107Z,101664.36
2018-09-17T05:15:12.471Z,101661.91
2018-09-17T05:20:15.783Z,101671.28
2018-09-17T05:25:19.064Z,101670.16
2018-09-17T05:30:22.480Z,101664.53
2018-09-17T05:35:25.989Z,101658.66
2018-09-17T05:40:30.627Z,101658.77
2018-09-17T05:45:33.908Z,101662.14
2018-09-17T05:50:37.170Z,101662.37
2018-09-17T05:55:40.538Z,101663.84
2018-09-17T06:00:44.238Z,101659.25
2018-09-17T06:05:47.528Z,101656.89
2018-09-17T06:10:51.304Z,101651.82
2018-09-17T06:15:54.595Z,101660.31
2018-09-17T06:20:57.785Z,101660.36
2018-09-17T06:26:01.020Z,101674.73
2018-09-17T06:31:04.326Z,101677.59
2018-09-17T06:36:08.377Z,101675.89
2018-09-17T06:41:11.812Z,101676.59
2018-09-17T06:46:15.025Z,101684.47
2018-09-17T06:51:18.396Z,101685.64
2018-09-17T06:56:22.359Z,101679.53
2018-09-17T07:01:25.744Z,101684.84
2018-09-17T07:06:29.343Z,101687.06
2018-09-17T07:11:32.690Z,101689.42
2018-09-17T07:16:35.905Z,101693.11
2018-09-17T07:21:39.188Z,101684.70
2018-09-17T07:26:42.416Z,101694.04
2018-09-17T07:31:46.124Z,101695.94
2018-09-17T07:36:49.276Z,101698.59
2018-09-17T07:41:52.632Z,101696.80
2018-09-17T07:46:55.964Z,101697.25
2018-09-17T07:51:59.242Z,101704.05
2018-09-17T07:57:03.742Z,101703.76
2018-09-17T08:02:07.016Z,101696.99
2018-09-17T08:07:10.550Z,101701.00
2018-09-17T08:12:13.736Z,101702.89
2018-09-17T08:17:16.978Z,101690.91
2018-09-17T08:22:20.118Z,101690.16
2018-09-17T08:27:23.489Z,101698.10
2018-09-17T08:32:26.773Z,101689.19
2018-09-17T08:37:29.977Z,101685.55
2018-09-17T08:42:36.158Z,101680.70
2018-09-17T08:47:39.411Z,101681.75
2018-09-17T08:52:42.635Z,101689.30
2018-09-17T08:57:45.788Z,101695.59
2018-09-17T09:02:48.924Z,101696.71
2018-09-17T09:07:52.201Z,101689.59
2018-09-17T09:12:56.149Z,101704.84
2018-09-17T09:17:59.401Z,101705.13
2018-09-17T09:23:02.646Z,101703.38
2018-09-17T09:28:05.834Z,101708.83
2018-09-17T09:33:09.288Z,101704.63
2018-09-17T09:38:12.549Z,101689.70
2018-09-17T09:43:15.785Z,101685.64
2018-09-17T09:48:19.027Z,101679.64
2018-09-17T09:53:22.637Z,101666.63
2018-09-17T09:58:25.804Z,101669.12
2018-09-17T10:03:29.169Z,101658.95
2018-09-17T10:08:32.438Z,101656.15
2018-09-17T10:13:35.638Z,101648.63
2018-09-17T10:18:41.813Z,101637.66
2018-09-17T10:23:45.041Z,101636.53
2018-09-17T10:28:50.382Z,101627.61
2018-09-17T10:33:53.676Z,101622.67
2018-09-17T10:39:06.452Z,101625.11
2018-09-17T10:44:09.757Z,101610.94
2018-09-17T10:49:13.140Z,101606.52
2018-09-17T10:54:16.302Z,101604.96
2018-09-17T10:59:19.499Z,101596.41
2018-09-17T11:04:22.835Z,101587.44
2018-09-17T11:09:26.182Z,101583.96
2018-09-17T11:14:29.475Z,101577.73
2018-09-17T11:19:32.868Z,101573.77
2018-09-17T11:24:36.140Z,101582.42
2018-09-17T11:29:39.393Z,101572.20
2018-09-17T11:34:42.644Z,101579.66
2018-09-17T11:39:45.846Z,101571.58
2018-09-17T11:44:49.200Z,101564.45
2018-09-17T11:49:53.458Z,101555.88
2018-09-17T11:54:56.784Z,101563.92
2018-09-17T12:00:00.325Z,101560.34
2018-09-17T12:05:03.683Z,101555.65
2018-09-17T12:10:08.547Z,101542.13
2018-09-17T12:15:11.728Z,101537.73
2018-09-17T12:20:15.101Z,101534.52
2018-09-17T12:25:22.768Z,101522.48
2018-09-17T12:30:25.984Z,101524.43
2018-09-17T12:35:29.260Z,101512.55
2018-09-17T12:40:32.465Z,101508.14
2018-09-17T12:45:35.662Z,101502.63
2018-09-17T12:50:38.943Z,101500.12
2018-09-17T12:55:42.273Z,101491.78
2018-09-17T13:00:45.490Z,101488.23
2018-09-17T13:05:50.854Z,101483.86
2018-09-17T13:10:54.012Z,101488.27
2018-09-17T13:15:57.286Z,101488.26
2018-09-17T13:21:00.583Z,101477.99
2018-09-17T13:26:03.824Z,101470.63
2018-09-17T13:31:07.517Z,101468.13
2018-09-17T13:36:10.693Z,101461.52
2018-09-17T13:41:13.949Z,101458.98
2018-09-17T13:46:17.180Z,101448.97
2018-09-17T13:51:20.473Z,101453.55
2018-09-17T13:56:23.812Z,101451.42
2018-09-17T14:01:27.048Z,101453.80
2018-09-17T14:06:30.759Z,101449.69
2018-09-17T14:11:34.080Z,101451.02
2018-09-17T14:16:37.416Z,101448.19
2018-09-17T14:21:41.122Z,101443.52
2018-09-17T14:26:44.317Z,101438.27
2018-09-17T14:31:47.515Z,101437.19
2018-09-17T14:36:50.857Z,101436.60
2018-09-17T14:41:56.420Z,101434.45
2018-09-17T14:46:59.842Z,101420.11
2018-09-17T14:52:03.186Z,101414.88
2018-09-17T14:57:06.479Z,101418.92
2018-09-17T15:02:09.771Z,101412.34
2018-09-17T15:07:13.047Z,101410.13
2018-09-17T15:12:16.301Z,101413.69
2018-09-17T15:17:19.530Z,101408.45
2018-09-17T15:22:23.474Z,101405.18
2018-09-17T15:27:26.706Z,101405.59
2018-09-17T15:32:30.323Z,101395.09
2018-09-17T15:37:35.638Z,101392.44
2018-09-17T15:42:38.851Z,101389.59
2018-09-17T15:47:42.109Z,101392.70
2018-09-17T15:52:45.320Z,101389.64
2018-09-17T15:57:48.716Z,101385.27
2018-09-17T16:02:52.023Z,101387.27
2018-09-17T16:07:55.382Z,101381.38
2018-09-17T16:12:59.030Z,101376.98
2018-09-17T16:18:02.291Z,101374.73
2018-09-17T16:23:06.129Z,101375.37
2018-09-17T16:28:09.524Z,101379.48
2018-09-17T16:33:12.729Z,101384.85
2018-09-17T16:38:15.948Z,101385.63
2018-09-17T16:43:19.292Z,101392.02
2018-09-17T16:48:22.663Z,101388.90
2018-09-17T16:53:26.984Z,101391.59
2018-09-17T16:58:30.161Z,101396.47
2018-09-17T17:03:33.416Z,101404.33
2018-09-17T17:08:36.725Z,101407.57
2018-09-17T17:13:39.994Z,101415.04
2018-09-17T17:18:43.544Z,101418.05
2018-09-17T17:23:47.020Z,101415.80
2018-09-17T17:28:50.259Z,101422.67
2018-09-17T17:33:57.226Z,101414.55
2018-09-17T17:39:00.592Z,101422.30
2018-09-17T17:44:03.876Z,101418.18
2018-09-17T17:49:07.131Z,101429.15
2018-09-17T17:54:10.340Z,101425.29
2018-09-17T17:59:13.575Z,101435.31
2018-09-17T18:04:17.359Z,101436.55
2018-09-17T18:09:20.734Z,101436.03
2018-09-17T18:14:24.391Z,101444.80
2018-09-17T18:19:27.911Z,101437.13
2018-09-17T18:24:32.033Z,101442.48
2018-09-17T18:29:35.224Z,101439.55
2018-09-17T18:34:38.503Z,101446.73
2018-09-17T18:39:42.460Z,101444.91
2018-09-17T18:44:45.873Z,101451.56
2018-09-17T18:49:49.439Z,101449.09
2018-09-17T18:54:54.373Z,101447.86
2018-09-17T18:59:58.964Z,101455.22
2018-09-17T19:05:03.083Z,101442.97
2018-09-17T19:10:06.954Z,101441.62
2018-09-17T19:15:10.211Z,101444.91
2018-09-17T19:20:14.423Z,101442.34
2018-09-17T19:25:18.485Z,101435.55
2018-09-17T19:30:23.394Z,101441.33
2018-09-17T19:35:26.951Z,101441.81
2018-09-17T19:40:30.601Z,101440.45
2018-09-17T19:45:34.205Z,101432.95
2018-09-17T19:50:37.582Z,101430.01
2018-09-17T19:55:40.868Z,101433.39
2018-09-17T20:00:44.123Z,101432.14
2018-09-17T20:06:02.280Z,101427.95
2018-09-17T20:11:19.146Z,101430.36
2018-09-17T20:16:25.042Z,101423.19
2018-09-17T20:21:36.429Z,101427.91
2018-09-17T20:26:44.261Z,101426.92
2018-09-17T20:31:51.697Z,101428.98
2018-09-17T20:37:00.149Z,101421.91
2018-09-17T20:42:06.756Z,101431.67
2018-09-17T20:47:14.730Z,101426.79
2018-09-17T20:52:22.379Z,101418.23
2018-09-17T20:57:31.408Z,101418.06
2018-09-17T21:02:35.568Z,101417.39
2018-09-17T21:07:39.290Z,101413.88
2018-09-17T21:12:44.011Z,101414.38
2018-09-17T21:17:47.347Z,101420.90
2018-09-17T21:22:51.851Z,101418.52
2018-09-17T21:27:56.191Z,101418.00
2018-09-17T21:33:00.905Z,101419.69
2018-09-17T21:38:04.174Z,101419.47
2018-09-17T21:43:07.543Z,101413.73
2018-09-17T21:48:10.823Z,101409.20
2018-09-17T21:53:14.286Z,101408.78
2018-09-17T21:58:18.729Z,101408.08
2018-09-17T22:03:21.964Z,101402.16
2018-09-17T22:08:25.450Z,101405.16
2018-09-17T22:13:28.903Z,101408.96
2018-09-17T22:18:32.129Z,101406.78
2018-09-17T22:23:35.363Z,101400.88
2018-09-17T22:28:38.592Z,101403.70
2018-09-17T22:33:41.782Z,101403.33
2018-09-17T22:38:45.032Z,101406.80
2018-09-17T22:43:48.739Z,101401.17
2018-09-17T22:48:52.016Z,101402.41
2018-09-17T22:53:55.363Z,101395.32
2018-09-17T22:58:58.613Z,101395.94
2018-09-17T23:04:02.122Z,101386.52
2018-09-17T23:09:07.966Z,101387.80
2018-09-17T23:14:11.159Z,101381.05
2018-09-17T23:19:14.419Z,101372.96
2018-09-17T23:24:17.634Z,101370.22
2018-09-17T23:29:20.812Z,101377.06
2018-09-17T23:34:24.275Z,101378.38
2018-09-17T23:39:27.543Z,101379.47
2018-09-17T23:44:30.892Z,101382.75
2018-09-17T23:49:34.081Z,101380.01
2018-09-17T23:54:37.271Z,101367.58
2018-09-17T23:59:40.462Z,101367.38
